Weather at Daniel K Inouye International Airport

Public forecast

Using degrees Fahrenheit for public forecast. Weather courtesy of forecast.io.

Current aviation weather report (METAR) for Daniel K Inouye International Airport

2022/11/30 10:53 (retrieved 55 minutes ago)

PHNL 301053Z 00000KT 10SM FEW028 SCT250 23/21 A2997

Aviation forecast (TAF) for Daniel K Inouye International Airport

2022/11/30 09:18 Ammendment (retrieved 2 hours ago)

TAF AMD PHNL 300917Z 3009/0112 35005KT P6SM FEW025 FEW045 SCT200 FM302100 04009KT P6SM SCT025 SCT045 SCT250 FM010400 33005KT P6SM FEW025 SCT045